sensor_id;sensor_type;location;lat;lon;timestamp;temperature;humidity
69324;DHT22;56470;47.350;8.718;2023-12-14T01:28:18;7.39;82.98
69324;DHT22;56470;47.350;8.718;2023-12-14T02:33:04;7.74;83.27
69324;DHT22;56470;47.350;8.718;2023-12-14T02:36:29;7.76;83.36
69324;DHT22;56470;47.350;8.718;2023-12-14T03:13:36;7.67;83.38
69324;DHT22;56470;47.350;8.718;2023-12-14T03:24:11;7.58;82.84
69324;DHT22;56470;47.350;8.718;2023-12-14T03:30:46;7.52;83.08
69324;DHT22;56470;47.350;8.718;2023-12-14T04:10:22;7.26;84.30
69324;DHT22;56470;47.350;8.718;2023-12-14T04:13:33;7.29;84.64
69324;DHT22;56470;47.350;8.718;2023-12-14T04:16:22;7.36;84.24
69324;DHT22;56470;47.350;8.718;2023-12-14T04:23:02;7.36;84.18
69324;DHT22;56470;47.350;8.718;2023-12-14T04:29:53;7.38;84.19
69324;DHT22;56470;47.350;8.718;2023-12-14T04:50:47;7.46;84.14
69324;DHT22;56470;47.350;8.718;2023-12-14T04:53:49;7.43;84.26
69324;DHT22;56470;47.350;8.718;2023-12-14T04:56:50;7.42;84.34
69324;DHT22;56470;47.350;8.718;2023-12-14T05:12:06;7.43;84.18
69324;DHT22;56470;47.350;8.718;2023-12-14T05:14:50;7.46;84.34
69324;DHT22;56470;47.350;8.718;2023-12-14T05:23:24;7.36;84.40
69324;DHT22;56470;47.350;8.718;2023-12-14T05:25:49;7.36;84.46
69324;DHT22;56470;47.350;8.718;2023-12-14T05:28:15;7.36;84.55
69324;DHT22;56470;47.350;8.718;2023-12-14T05:30:40;7.38;84.65
69324;DHT22;56470;47.350;8.718;2023-12-14T05:33:06;7.43;84.67
69324;DHT22;56470;47.350;8.718;2023-12-14T05:35:37;7.45;84.69
69324;DHT22;56470;47.350;8.718;2023-12-14T05:38:04;7.42;84.48
69324;DHT22;56470;47.350;8.718;2023-12-14T05:40:37;7.42;84.54
69324;DHT22;56470;47.350;8.718;2023-12-14T05:43:02;7.43;84.67
69324;DHT22;56470;47.350;8.718;2023-12-14T05:45:28;7.45;84.68
69324;DHT22;56470;47.350;8.718;2023-12-14T05:47:54;7.48;84.81
69324;DHT22;56470;47.350;8.718;2023-12-14T05:50:19;7.49;84.65
69324;DHT22;56470;47.350;8.718;2023-12-14T05:52:44;7.50;84.70
69324;DHT22;56470;47.350;8.718;2023-12-14T05:55:11;7.48;84.66
69324;DHT22;56470;47.350;8.718;2023-12-14T05:57:36;7.50;84.82
69324;DHT22;56470;47.350;8.718;2023-12-14T06:00:03;7.45;84.71
69324;DHT22;56470;47.350;8.718;2023-12-14T06:02:30;7.45;84.60
69324;DHT22;56470;47.350;8.718;2023-12-14T06:05:00;7.43;84.62
69324;DHT22;56470;47.350;8.718;2023-12-14T06:07:40;7.38;84.72
69324;DHT22;56470;47.350;8.718;2023-12-14T06:10:14;7.39;84.79
69324;DHT22;56470;47.350;8.718;2023-12-14T06:12:44;7.43;84.86
69324;DHT22;56470;47.350;8.718;2023-12-14T06:15:17;7.43;84.69
69324;DHT22;56470;47.350;8.718;2023-12-14T06:17:42;7.48;84.86
69324;DHT22;56470;47.350;8.718;2023-12-14T06:20:08;7.49;84.83
69324;DHT22;56470;47.350;8.718;2023-12-14T06:22:37;7.52;84.88
69324;DHT22;56470;47.350;8.718;2023-12-14T06:25:05;7.55;84.74
69324;DHT22;56470;47.350;8.718;2023-12-14T06:27:31;7.55;84.66
69324;DHT22;56470;47.350;8.718;2023-12-14T06:30:06;7.62;84.77
69324;DHT22;56470;47.350;8.718;2023-12-14T06:32:37;7.65;84.80
69324;DHT22;56470;47.350;8.718;2023-12-14T06:35:12;7.67;84.76
69324;DHT22;56470;47.350;8.718;2023-12-14T06:37:37;7.71;84.85
69324;DHT22;56470;47.350;8.718;2023-12-14T06:40:05;7.73;84.49
69324;DHT22;56470;47.350;8.718;2023-12-14T06:42:38;7.69;84.44
69324;DHT22;56470;47.350;8.718;2023-12-14T06:45:04;7.70;84.19
69324;DHT22;56470;47.350;8.718;2023-12-14T06:47:30;7.66;84.25
69324;DHT22;56470;47.350;8.718;2023-12-14T06:50:03;7.60;84.41
69324;DHT22;56470;47.350;8.718;2023-12-14T06:52:30;7.62;84.59
69324;DHT22;56470;47.350;8.718;2023-12-14T06:54:56;7.59;84.66
69324;DHT22;56470;47.350;8.718;2023-12-14T06:57:21;7.65;84.69
69324;DHT22;56470;47.350;8.718;2023-12-14T06:59:47;7.66;84.37
69324;DHT22;56470;47.350;8.718;2023-12-14T07:02:12;7.66;84.84
69324;DHT22;56470;47.350;8.718;2023-12-14T07:04:37;7.69;84.58
69324;DHT22;56470;47.350;8.718;2023-12-14T07:07:03;7.63;84.46
69324;DHT22;56470;47.350;8.718;2023-12-14T07:09:29;7.66;84.83
69324;DHT22;56470;47.350;8.718;2023-12-14T07:11:54;7.67;84.83
69324;DHT22;56470;47.350;8.718;2023-12-14T07:14:19;7.66;84.74
69324;DHT22;56470;47.350;8.718;2023-12-14T07:16:45;7.69;84.57
69324;DHT22;56470;47.350;8.718;2023-12-14T07:19:13;7.69;84.45
69324;DHT22;56470;47.350;8.718;2023-12-14T07:21:38;7.67;84.75
69324;DHT22;56470;47.350;8.718;2023-12-14T07:24:06;7.73;84.77
69324;DHT22;56470;47.350;8.718;2023-12-14T07:26:34;7.76;84.88
69324;DHT22;56470;47.350;8.718;2023-12-14T07:28:59;7.76;84.70
69324;DHT22;56470;47.350;8.718;2023-12-14T07:31:25;7.78;84.82
69324;DHT22;56470;47.350;8.718;2023-12-14T07:33:50;7.78;84.39
69324;DHT22;56470;47.350;8.718;2023-12-14T07:36:16;7.73;84.30
69324;DHT22;56470;47.350;8.718;2023-12-14T07:38:48;7.71;84.62
69324;DHT22;56470;47.350;8.718;2023-12-14T07:41:13;7.74;84.84
69324;DHT22;56470;47.350;8.718;2023-12-14T07:43:39;7.76;84.83
69324;DHT22;56470;47.350;8.718;2023-12-14T07:46:14;7.74;84.53
69324;DHT22;56470;47.350;8.718;2023-12-14T07:48:42;7.73;84.67
69324;DHT22;56470;47.350;8.718;2023-12-14T07:51:13;7.67;84.51
69324;DHT22;56470;47.350;8.718;2023-12-14T07:53:38;7.69;84.65
69324;DHT22;56470;47.350;8.718;2023-12-14T07:56:06;7.67;84.76
69324;DHT22;56470;47.350;8.718;2023-12-14T07:58:31;7.70;85.03
69324;DHT22;56470;47.350;8.718;2023-12-14T08:00:57;7.70;84.86
69324;DHT22;56470;47.350;8.718;2023-12-14T08:03:22;7.71;84.64
69324;DHT22;56470;47.350;8.718;2023-12-14T08:05:50;7.66;84.75
69324;DHT22;56470;47.350;8.718;2023-12-14T08:08:16;7.67;84.95
69324;DHT22;56470;47.350;8.718;2023-12-14T08:10:44;7.67;84.82
69324;DHT22;56470;47.350;8.718;2023-12-14T08:13:15;7.70;84.96
69324;DHT22;56470;47.350;8.718;2023-12-14T08:15:41;7.77;85.29
69324;DHT22;56470;47.350;8.718;2023-12-14T08:18:06;7.78;85.06
69324;DHT22;56470;47.350;8.718;2023-12-14T08:20:35;7.78;84.79
69324;DHT22;56470;47.350;8.718;2023-12-14T08:23:03;7.86;84.76
69324;DHT22;56470;47.350;8.718;2023-12-14T08:25:32;7.87;84.79
69324;DHT22;56470;47.350;8.718;2023-12-14T08:28:00;7.88;84.76
69324;DHT22;56470;47.350;8.718;2023-12-14T08:30:26;7.88;84.63
69324;DHT22;56470;47.350;8.718;2023-12-14T08:32:51;7.88;84.55
69324;DHT22;56470;47.350;8.718;2023-12-14T08:35:24;7.91;84.79
69324;DHT22;56470;47.350;8.718;2023-12-14T08:37:53;7.90;84.41
69324;DHT22;56470;47.350;8.718;2023-12-14T08:40:23;7.97;84.65
69324;DHT22;56470;47.350;8.718;2023-12-14T08:42:57;7.99;84.49
69324;DHT22;56470;47.350;8.718;2023-12-14T08:45:22;8.05;84.45
69324;DHT22;56470;47.350;8.718;2023-12-14T08:47:53;8.06;84.34
69324;DHT22;56470;47.350;8.718;2023-12-14T08:50:21;8.09;84.28
69324;DHT22;56470;47.350;8.718;2023-12-14T08:53:02;8.11;84.27
69324;DHT22;56470;47.350;8.718;2023-12-14T08:55:29;8.18;84.26
69324;DHT22;56470;47.350;8.718;2023-12-14T08:57:55;8.20;84.15
69324;DHT22;56470;47.350;8.718;2023-12-14T09:00:26;8.18;83.69
69324;DHT22;56470;47.350;8.718;2023-12-14T09:02:58;8.20;83.57
69324;DHT22;56470;47.350;8.718;2023-12-14T09:05:27;8.21;83.65
69324;DHT22;56470;47.350;8.718;2023-12-14T09:07:55;8.22;83.89
69324;DHT22;56470;47.350;8.718;2023-12-14T09:10:31;8.25;84.03
69324;DHT22;56470;47.350;8.718;2023-12-14T09:15:48;8.26;83.40
69324;DHT22;56470;47.350;8.718;2023-12-14T09:18:21;8.29;83.76
69324;DHT22;56470;47.350;8.718;2023-12-14T09:21:00;8.24;83.17
69324;DHT22;56470;47.350;8.718;2023-12-14T09:23:34;8.25;83.19
69324;DHT22;56470;47.350;8.718;2023-12-14T09:26:31;8.29;83.65
69324;DHT22;56470;47.350;8.718;2023-12-14T09:29:10;8.28;83.76
69324;DHT22;56470;47.350;8.718;2023-12-14T09:31:46;8.33;83.62
69324;DHT22;56470;47.350;8.718;2023-12-14T09:34:32;8.31;83.60
69324;DHT22;56470;47.350;8.718;2023-12-14T09:37:05;8.32;83.51
69324;DHT22;56470;47.350;8.718;2023-12-14T09:39:46;8.36;83.63
69324;DHT22;56470;47.350;8.718;2023-12-14T09:42:38;8.33;82.59
69324;DHT22;56470;47.350;8.718;2023-12-14T09:45:07;8.39;83.23
69324;DHT22;56470;47.350;8.718;2023-12-14T09:47:54;8.36;83.25
69324;DHT22;56470;47.350;8.718;2023-12-14T09:50:29;8.39;82.85
69324;DHT22;56470;47.350;8.718;2023-12-14T09:53:16;8.38;83.04
69324;DHT22;56470;47.350;8.718;2023-12-14T09:55:49;8.38;82.45
69324;DHT22;56470;47.350;8.718;2023-12-14T09:58:25;8.33;82.14
69324;DHT22;56470;47.350;8.718;2023-12-14T10:00:53;8.35;82.84
69324;DHT22;56470;47.350;8.718;2023-12-14T10:03:43;8.38;83.01
69324;DHT22;56470;47.350;8.718;2023-12-14T10:06:08;8.36;82.61
69324;DHT22;56470;47.350;8.718;2023-12-14T10:08:36;8.36;82.56
69324;DHT22;56470;47.350;8.718;2023-12-14T10:11:14;8.35;82.68
69324;DHT22;56470;47.350;8.718;2023-12-14T10:13:40;8.42;82.87
69324;DHT22;56470;47.350;8.718;2023-12-14T10:16:08;8.42;82.69
69324;DHT22;56470;47.350;8.718;2023-12-14T10:18:34;8.45;82.58
69324;DHT22;56470;47.350;8.718;2023-12-14T10:20:59;8.43;81.75
69324;DHT22;56470;47.350;8.718;2023-12-14T10:23:27;8.40;81.98
69324;DHT22;56470;47.350;8.718;2023-12-14T10:25:55;8.42;82.27
69324;DHT22;56470;47.350;8.718;2023-12-14T10:28:22;8.45;82.14
69324;DHT22;56470;47.350;8.718;2023-12-14T10:30:50;8.45;81.92
69324;DHT22;56470;47.350;8.718;2023-12-14T10:33:15;8.45;81.86
69324;DHT22;56470;47.350;8.718;2023-12-14T10:35:41;8.43;81.49
69324;DHT22;56470;47.350;8.718;2023-12-14T10:38:07;8.45;81.51
69324;DHT22;56470;47.350;8.718;2023-12-14T10:40:35;8.45;81.94
69324;DHT22;56470;47.350;8.718;2023-12-14T10:43:05;8.42;81.03
69324;DHT22;56470;47.350;8.718;2023-12-14T10:45:34;8.45;81.65
69324;DHT22;56470;47.350;8.718;2023-12-14T10:48:00;8.49;81.86
69324;DHT22;56470;47.350;8.718;2023-12-14T10:50:29;8.52;82.11
69324;DHT22;56470;47.350;8.718;2023-12-14T10:52:56;8.50;81.41
69324;DHT22;56470;47.350;8.718;2023-12-14T10:55:41;8.49;80.46
69324;DHT22;56470;47.350;8.718;2023-12-14T10:58:11;8.49;81.34
69324;DHT22;56470;47.350;8.718;2023-12-14T11:00:37;8.52;81.15
69324;DHT22;56470;47.350;8.718;2023-12-14T11:03:06;8.54;81.59
69324;DHT22;56470;47.350;8.718;2023-12-14T11:05:34;8.57;81.39
69324;DHT22;56470;47.350;8.718;2023-12-14T11:08:01;8.57;81.12
69324;DHT22;56470;47.350;8.718;2023-12-14T11:10:39;8.56;81.22
69324;DHT22;56470;47.350;8.718;2023-12-14T11:13:09;8.56;81.04
69324;DHT22;56470;47.350;8.718;2023-12-14T11:15:49;8.53;80.75
69324;DHT22;56470;47.350;8.718;2023-12-14T11:23:11;8.54;80.63
69324;DHT22;56470;47.350;8.718;2023-12-14T11:25:39;8.54;81.05
69324;DHT22;56470;47.350;8.718;2023-12-14T11:28:08;8.57;81.78
69324;DHT22;56470;47.350;8.718;2023-12-14T11:30:34;8.59;81.85
69324;DHT22;56470;47.350;8.718;2023-12-14T11:33:00;8.61;81.79
69324;DHT22;56470;47.350;8.718;2023-12-14T11:35:25;8.64;81.74
69324;DHT22;56470;47.350;8.718;2023-12-14T11:37:53;8.64;81.63
69324;DHT22;56470;47.350;8.718;2023-12-14T11:40:18;8.63;81.44
69324;DHT22;56470;47.350;8.718;2023-12-14T11:43:04;8.61;81.28
69324;DHT22;56470;47.350;8.718;2023-12-14T11:45:34;8.60;81.26
69324;DHT22;56470;47.350;8.718;2023-12-14T11:47:59;8.60;81.11
69324;DHT22;56470;47.350;8.718;2023-12-14T11:50:26;8.59;81.42
69324;DHT22;56470;47.350;8.718;2023-12-14T11:52:52;8.57;81.57
69324;DHT22;56470;47.350;8.718;2023-12-14T11:55:18;8.54;80.83
69324;DHT22;56470;47.350;8.718;2023-12-14T11:57:46;8.54;81.62
69324;DHT22;56470;47.350;8.718;2023-12-14T12:00:12;8.54;80.77
69324;DHT22;56470;47.350;8.718;2023-12-14T12:02:38;8.54;81.28
69324;DHT22;56470;47.350;8.718;2023-12-14T12:05:06;8.53;81.44
69324;DHT22;56470;47.350;8.718;2023-12-14T12:07:31;8.52;81.23
69324;DHT22;56470;47.350;8.718;2023-12-14T12:09:58;8.52;81.37
69324;DHT22;56470;47.350;8.718;2023-12-14T12:12:23;8.53;81.45
69324;DHT22;56470;47.350;8.718;2023-12-14T12:14:49;8.53;81.39
69324;DHT22;56470;47.350;8.718;2023-12-14T12:17:18;8.56;81.70
69324;DHT22;56470;47.350;8.718;2023-12-14T12:19:45;8.59;81.81
69324;DHT22;56470;47.350;8.718;2023-12-14T12:22:10;8.59;81.72
69324;DHT22;56470;47.350;8.718;2023-12-14T12:24:36;8.61;81.54
69324;DHT22;56470;47.350;8.718;2023-12-14T12:27:01;8.57;80.84
69324;DHT22;56470;47.350;8.718;2023-12-14T12:29:27;8.52;81.33
69324;DHT22;56470;47.350;8.718;2023-12-14T12:31:52;8.49;80.72
69324;DHT22;56470;47.350;8.718;2023-12-14T12:34:18;8.48;81.56
69324;DHT22;56470;47.350;8.718;2023-12-14T12:36:43;8.50;81.20
69324;DHT22;56470;47.350;8.718;2023-12-14T12:39:09;8.46;81.19
69324;DHT22;56470;47.350;8.718;2023-12-14T12:41:34;8.49;81.46
69324;DHT22;56470;47.350;8.718;2023-12-14T12:44:02;8.50;81.65
69324;DHT22;56470;47.350;8.718;2023-12-14T12:46:49;8.50;81.39
69324;DHT22;56470;47.350;8.718;2023-12-14T12:49:14;8.54;81.82
69324;DHT22;56470;47.350;8.718;2023-12-14T12:51:40;8.57;81.92
69324;DHT22;56470;47.350;8.718;2023-12-14T12:54:05;8.60;81.90
69324;DHT22;56470;47.350;8.718;2023-12-14T12:56:30;8.63;81.90
69324;DHT22;56470;47.350;8.718;2023-12-14T12:58:56;8.61;81.80
69324;DHT22;56470;47.350;8.718;2023-12-14T13:01:22;8.63;81.70
69324;DHT22;56470;47.350;8.718;2023-12-14T13:03:53;8.63;81.66
69324;DHT22;56470;47.350;8.718;2023-12-14T13:06:20;8.59;81.70
69324;DHT22;56470;47.350;8.718;2023-12-14T13:08:46;8.60;81.84
69324;DHT22;56470;47.350;8.718;2023-12-14T13:11:11;8.59;81.80
69324;DHT22;56470;47.350;8.718;2023-12-14T13:13:37;8.61;81.75
69324;DHT22;56470;47.350;8.718;2023-12-14T13:16:02;8.61;81.74
69324;DHT22;56470;47.350;8.718;2023-12-14T13:18:28;8.61;81.98
69324;DHT22;56470;47.350;8.718;2023-12-14T13:20:53;8.63;82.04
69324;DHT22;56470;47.350;8.718;2023-12-14T13:23:18;8.66;82.05
69324;DHT22;56470;47.350;8.718;2023-12-14T13:25:44;8.64;81.78
69324;DHT22;56470;47.350;8.718;2023-12-14T13:28:10;8.60;81.77
69324;DHT22;56470;47.350;8.718;2023-12-14T13:30:35;8.61;82.06
69324;DHT22;56470;47.350;8.718;2023-12-14T13:33:00;8.63;81.98
69324;DHT22;56470;47.350;8.718;2023-12-14T13:35:26;8.63;82.03
69324;DHT22;56470;47.350;8.718;2023-12-14T13:37:53;8.66;82.08
69324;DHT22;56470;47.350;8.718;2023-12-14T13:40:18;8.63;81.96
69324;DHT22;56470;47.350;8.718;2023-12-14T13:42:44;8.63;81.92
69324;DHT22;56470;47.350;8.718;2023-12-14T13:45:09;8.64;81.48
69324;DHT22;56470;47.350;8.718;2023-12-14T13:47:35;8.63;82.07
69324;DHT22;56470;47.350;8.718;2023-12-14T13:50:00;8.61;81.96
69324;DHT22;56470;47.350;8.718;2023-12-14T13:52:25;8.63;81.67
69324;DHT22;56470;47.350;8.718;2023-12-14T13:54:51;8.66;82.02
69324;DHT22;56470;47.350;8.718;2023-12-14T13:57:16;8.60;81.55
69324;DHT22;56470;47.350;8.718;2023-12-14T13:59:42;8.63;82.10
69324;DHT22;56470;47.350;8.718;2023-12-14T14:02:07;8.63;81.88
69324;DHT22;56470;47.350;8.718;2023-12-14T14:04:33;8.63;82.11
69324;DHT22;56470;47.350;8.718;2023-12-14T14:06:58;8.64;82.19
69324;DHT22;56470;47.350;8.718;2023-12-14T14:09:23;8.63;82.20
69324;DHT22;56470;47.350;8.718;2023-12-14T14:11:49;8.66;82.24
69324;DHT22;56470;47.350;8.718;2023-12-14T14:14:15;8.66;82.36
69324;DHT22;56470;47.350;8.718;2023-12-14T14:16:41;8.67;82.14
69324;DHT22;56470;47.350;8.718;2023-12-14T14:19:06;8.67;82.14
69324;DHT22;56470;47.350;8.718;2023-12-14T14:21:31;8.66;82.19
69324;DHT22;56470;47.350;8.718;2023-12-14T14:23:57;8.66;81.83
69324;DHT22;56470;47.350;8.718;2023-12-14T14:26:24;8.64;81.51
69324;DHT22;56470;47.350;8.718;2023-12-14T14:28:49;8.60;81.46
69324;DHT22;56470;47.350;8.718;2023-12-14T14:31:15;8.60;81.99
69324;DHT22;56470;47.350;8.718;2023-12-14T14:33:40;8.66;82.39
69324;DHT22;56470;47.350;8.718;2023-12-14T14:36:06;8.60;81.63
69324;DHT22;56470;47.350;8.718;2023-12-14T14:38:33;8.59;82.04
69324;DHT22;56470;47.350;8.718;2023-12-14T14:40:58;8.63;82.41
69324;DHT22;56470;47.350;8.718;2023-12-14T14:43:23;8.63;82.28
69324;DHT22;56470;47.350;8.718;2023-12-14T14:45:49;8.63;82.10
69324;DHT22;56470;47.350;8.718;2023-12-14T14:48:14;8.63;81.92
69324;DHT22;56470;47.350;8.718;2023-12-14T14:50:40;8.63;82.27
69324;DHT22;56470;47.350;8.718;2023-12-14T14:53:05;8.61;82.53
69324;DHT22;56470;47.350;8.718;2023-12-14T14:55:30;8.66;82.21
69324;DHT22;56470;47.350;8.718;2023-12-14T14:57:56;8.67;82.67
69324;DHT22;56470;47.350;8.718;2023-12-14T15:00:22;8.68;82.53
69324;DHT22;56470;47.350;8.718;2023-12-14T15:02:48;8.68;82.41
69324;DHT22;56470;47.350;8.718;2023-12-14T15:05:14;8.67;81.84
69324;DHT22;56470;47.350;8.718;2023-12-14T15:07:39;8.66;81.95
69324;DHT22;56470;47.350;8.718;2023-12-14T15:10:05;8.67;82.16
69324;DHT22;56470;47.350;8.718;2023-12-14T15:12:30;8.68;81.93
69324;DHT22;56470;47.350;8.718;2023-12-14T15:14:56;8.64;82.10
69324;DHT22;56470;47.350;8.718;2023-12-14T15:17:22;8.60;82.24
69324;DHT22;56470;47.350;8.718;2023-12-14T15:19:48;8.63;82.47
69324;DHT22;56470;47.350;8.718;2023-12-14T15:22:14;8.68;82.50
69324;DHT22;56470;47.350;8.718;2023-12-14T15:24:40;8.67;82.13
69324;DHT22;56470;47.350;8.718;2023-12-14T15:27:05;8.66;82.04
69324;DHT22;56470;47.350;8.718;2023-12-14T15:29:31;8.66;82.28
69324;DHT22;56470;47.350;8.718;2023-12-14T15:31:56;8.67;82.19
69324;DHT22;56470;47.350;8.718;2023-12-14T15:34:21;8.68;82.53
69324;DHT22;56470;47.350;8.718;2023-12-14T15:36:47;8.67;82.63
69324;DHT22;56470;47.350;8.718;2023-12-14T15:39:12;8.64;81.97
69324;DHT22;56470;47.350;8.718;2023-12-14T15:41:38;8.66;82.06
69324;DHT22;56470;47.350;8.718;2023-12-14T15:44:03;8.66;82.38
69324;DHT22;56470;47.350;8.718;2023-12-14T15:46:28;8.66;82.43
69324;DHT22;56470;47.350;8.718;2023-12-14T15:48:54;8.68;82.71
69324;DHT22;56470;47.350;8.718;2023-12-14T16:12:57;8.56;81.91
69324;DHT22;56470;47.350;8.718;2023-12-14T17:11:00;8.49;81.71
69324;DHT22;56470;47.350;8.718;2023-12-14T17:14:13;8.46;81.13
69324;DHT22;56470;47.350;8.718;2023-12-14T17:20:00;8.48;80.98
69324;DHT22;56470;47.350;8.718;2023-12-14T17:25:35;8.49;81.72
69324;DHT22;56470;47.350;8.718;2023-12-14T17:28:20;8.49;81.69
69324;DHT22;56470;47.350;8.718;2023-12-14T17:31:13;8.52;81.57
69324;DHT22;56470;47.350;8.718;2023-12-14T17:33:47;8.50;81.37
69324;DHT22;56470;47.350;8.718;2023-12-14T17:36:15;8.48;81.70
69324;DHT22;56470;47.350;8.718;2023-12-14T17:41:46;8.43;82.00
69324;DHT22;56470;47.350;8.718;2023-12-14T17:44:30;8.50;82.29
69324;DHT22;56470;47.350;8.718;2023-12-14T17:46:56;8.48;82.07
69324;DHT22;56470;47.350;8.718;2023-12-14T17:49:23;8.46;81.98
69324;DHT22;56470;47.350;8.718;2023-12-14T17:51:49;8.46;82.29
69324;DHT22;56470;47.350;8.718;2023-12-14T17:54:14;8.48;82.33
69324;DHT22;56470;47.350;8.718;2023-12-14T17:56:44;8.42;82.04
69324;DHT22;56470;47.350;8.718;2023-12-14T17:59:10;8.43;82.34
69324;DHT22;56470;47.350;8.718;2023-12-14T18:01:43;8.39;82.47
69324;DHT22;56470;47.350;8.718;2023-12-14T18:04:08;8.42;82.52
69324;DHT22;56470;47.350;8.718;2023-12-14T18:09:47;8.43;82.54
69324;DHT22;56470;47.350;8.718;2023-12-14T18:12:12;8.48;82.62
69324;DHT22;56470;47.350;8.718;2023-12-14T18:14:38;8.38;82.45
69324;DHT22;56470;47.350;8.718;2023-12-14T18:17:04;8.36;82.63
69324;DHT22;56470;47.350;8.718;2023-12-14T18:19:34;8.33;82.86
69324;DHT22;56470;47.350;8.718;2023-12-14T18:21:59;8.39;82.82
69324;DHT22;56470;47.350;8.718;2023-12-14T18:24:45;8.35;83.29
69324;DHT22;56470;47.350;8.718;2023-12-14T18:27:10;8.39;82.89
69324;DHT22;56470;47.350;8.718;2023-12-14T18:29:36;8.36;82.79
69324;DHT22;56470;47.350;8.718;2023-12-14T18:32:10;8.38;82.98
69324;DHT22;56470;47.350;8.718;2023-12-14T18:34:41;8.33;82.97
69324;DHT22;56470;47.350;8.718;2023-12-14T18:37:07;8.36;83.04
69324;DHT22;56470;47.350;8.718;2023-12-14T18:39:35;8.39;83.11
69324;DHT22;56470;47.350;8.718;2023-12-14T18:42:00;8.38;82.94
69324;DHT22;56470;47.350;8.718;2023-12-14T18:44:25;8.32;82.69
69324;DHT22;56470;47.350;8.718;2023-12-14T18:46:51;8.28;82.72
69324;DHT22;56470;47.350;8.718;2023-12-14T18:49:16;8.26;83.14
69324;DHT22;56470;47.350;8.718;2023-12-14T18:51:41;8.24;82.85
69324;DHT22;56470;47.350;8.718;2023-12-14T18:54:09;8.05;81.74
69324;DHT22;56470;47.350;8.718;2023-12-14T18:56:36;7.97;82.65
69324;DHT22;56470;47.350;8.718;2023-12-14T18:59:02;7.94;82.90
69324;DHT22;56470;47.350;8.718;2023-12-14T19:01:27;7.93;83.22
69324;DHT22;56470;47.350;8.718;2023-12-14T19:03:52;7.97;83.41
69324;DHT22;56470;47.350;8.718;2023-12-14T19:06:18;7.93;82.64
69324;DHT22;56470;47.350;8.718;2023-12-14T19:08:43;7.93;82.34
69324;DHT22;56470;47.350;8.718;2023-12-14T19:11:19;7.87;82.43
69324;DHT22;56470;47.350;8.718;2023-12-14T19:13:45;7.94;83.10
69324;DHT22;56470;47.350;8.718;2023-12-14T19:16:10;7.95;83.00
69324;DHT22;56470;47.350;8.718;2023-12-14T19:18:37;7.98;83.01
69324;DHT22;56470;47.350;8.718;2023-12-14T19:21:02;8.04;83.26
69324;DHT22;56470;47.350;8.718;2023-12-14T19:23:27;8.04;83.33
69324;DHT22;56470;47.350;8.718;2023-12-14T19:25:53;8.04;82.46
69324;DHT22;56470;47.350;8.718;2023-12-14T19:28:23;8.04;82.66
69324;DHT22;56470;47.350;8.718;2023-12-14T19:30:49;8.04;83.14
69324;DHT22;56470;47.350;8.718;2023-12-14T19:33:14;8.02;83.25
69324;DHT22;56470;47.350;8.718;2023-12-14T19:35:40;8.02;83.33
69324;DHT22;56470;47.350;8.718;2023-12-14T19:38:05;8.05;83.52
69324;DHT22;56470;47.350;8.718;2023-12-14T19:40:30;8.04;83.37
69324;DHT22;56470;47.350;8.718;2023-12-14T19:42:58;8.05;83.58
69324;DHT22;56470;47.350;8.718;2023-12-14T19:45:24;8.05;83.61
69324;DHT22;56470;47.350;8.718;2023-12-14T19:47:50;7.99;83.07
69324;DHT22;56470;47.350;8.718;2023-12-14T19:50:15;8.01;83.45
69324;DHT22;56470;47.350;8.718;2023-12-14T19:52:41;8.02;83.41
69324;DHT22;56470;47.350;8.718;2023-12-14T19:55:06;7.99;83.48
69324;DHT22;56470;47.350;8.718;2023-12-14T19:57:35;7.99;83.51
69324;DHT22;56470;47.350;8.718;2023-12-14T20:00:01;8.02;83.67
69324;DHT22;56470;47.350;8.718;2023-12-14T20:02:27;7.99;83.38
69324;DHT22;56470;47.350;8.718;2023-12-14T20:04:52;7.93;83.09
69324;DHT22;56470;47.350;8.718;2023-12-14T20:07:22;7.88;83.04
69324;DHT22;56470;47.350;8.718;2023-12-14T20:10:05;7.86;83.13
69324;DHT22;56470;47.350;8.718;2023-12-14T20:12:58;7.83;83.36
69324;DHT22;56470;47.350;8.718;2023-12-14T20:15:46;7.88;83.64
69324;DHT22;56470;47.350;8.718;2023-12-14T20:18:27;7.95;83.29
69324;DHT22;56470;47.350;8.718;2023-12-14T20:24:03;8.05;82.78
69324;DHT22;56470;47.350;8.718;2023-12-14T20:26:57;8.04;82.87
69324;DHT22;56470;47.350;8.718;2023-12-14T20:29:53;8.02;82.85
69324;DHT22;56470;47.350;8.718;2023-12-14T20:32:48;7.97;82.55
69324;DHT22;56470;47.350;8.718;2023-12-14T20:35:43;7.78;82.84
69324;DHT22;56470;47.350;8.718;2023-12-14T20:38:52;7.65;83.27
69324;DHT22;56470;47.350;8.718;2023-12-14T20:41:40;7.55;83.44
69324;DHT22;56470;47.350;8.718;2023-12-14T20:44:34;7.48;83.78
69324;DHT22;56470;47.350;8.718;2023-12-14T20:47:05;7.42;83.72
69324;DHT22;56470;47.350;8.718;2023-12-14T20:50:02;7.45;84.19
69324;DHT22;56470;47.350;8.718;2023-12-14T20:55:46;7.43;84.19
69324;DHT22;56470;47.350;8.718;2023-12-14T21:31:15;7.63;84.21
69324;DHT22;56470;47.350;8.718;2023-12-14T21:33:51;7.69;84.16
69324;DHT22;56470;47.350;8.718;2023-12-14T21:36:47;7.69;83.63
69324;DHT22;56470;47.350;8.718;2023-12-14T21:39:20;7.66;84.04
69324;DHT22;56470;47.350;8.718;2023-12-14T21:41:58;7.71;84.14
69324;DHT22;56470;47.350;8.718;2023-12-14T21:44:35;7.77;84.12
69324;DHT22;56470;47.350;8.718;2023-12-14T21:47:36;7.69;83.65
69324;DHT22;56470;47.350;8.718;2023-12-14T21:50:40;7.76;84.12
69324;DHT22;56470;47.350;8.718;2023-12-14T21:53:40;7.80;84.47
69324;DHT22;56470;47.350;8.718;2023-12-14T21:56:53;7.81;84.24
69324;DHT22;56470;47.350;8.718;2023-12-14T22:00:17;7.87;84.42
69324;DHT22;56470;47.350;8.718;2023-12-14T22:03:31;7.97;84.17
69324;DHT22;56470;47.350;8.718;2023-12-14T22:06:11;7.99;83.63
69324;DHT22;56470;47.350;8.718;2023-12-14T22:09:00;8.01;83.91
69324;DHT22;56470;47.350;8.718;2023-12-14T22:11:30;8.02;83.99
69324;DHT22;56470;47.350;8.718;2023-12-14T22:14:06;7.99;84.14
69324;DHT22;56470;47.350;8.718;2023-12-14T22:16:45;7.93;84.04
69324;DHT22;56470;47.350;8.718;2023-12-14T22:19:27;7.95;84.23
69324;DHT22;56470;47.350;8.718;2023-12-14T22:40:41;8.05;83.77
69324;DHT22;56470;47.350;8.718;2023-12-14T22:43:21;8.06;83.93
69324;DHT22;56470;47.350;8.718;2023-12-14T22:45:53;7.99;83.92
69324;DHT22;56470;47.350;8.718;2023-12-14T22:48:27;8.01;84.00
69324;DHT22;56470;47.350;8.718;2023-12-14T22:51:18;7.94;83.82
69324;DHT22;56470;47.350;8.718;2023-12-14T22:54:08;7.86;83.75
69324;DHT22;56470;47.350;8.718;2023-12-14T23:00:00;7.78;84.01
69324;DHT22;56470;47.350;8.718;2023-12-14T23:02:53;7.78;84.10
69324;DHT22;56470;47.350;8.718;2023-12-14T23:05:39;7.74;83.93
69324;DHT22;56470;47.350;8.718;2023-12-14T23:11:12;7.74;84.03
69324;DHT22;56470;47.350;8.718;2023-12-14T23:13:47;7.73;84.18
69324;DHT22;56470;47.350;8.718;2023-12-14T23:16:57;7.70;83.78
69324;DHT22;56470;47.350;8.718;2023-12-14T23:19:34;7.71;84.03
69324;DHT22;56470;47.350;8.718;2023-12-14T23:22:13;7.73;84.22
69324;DHT22;56470;47.350;8.718;2023-12-14T23:24:46;7.70;84.04
69324;DHT22;56470;47.350;8.718;2023-12-14T23:27:21;7.69;84.06
69324;DHT22;56470;47.350;8.718;2023-12-14T23:29:49;7.67;83.77